createdAt,value
2018-12-12T00:02:16.107Z,91.30
2018-12-12T00:04:44.687Z,91.20
2018-12-12T00:07:13.497Z,91.40
2018-12-12T00:09:42.113Z,91.40
2018-12-12T00:12:10.779Z,91.40
2018-12-12T00:14:39.343Z,91.50
2018-12-12T00:17:07.920Z,91.50
2018-12-12T00:19:36.472Z,91.50
2018-12-12T00:22:05.515Z,91.60
2018-12-12T00:24:34.080Z,91.50
2018-12-12T00:27:02.699Z,91.50
2018-12-12T00:29:31.316Z,91.40
2018-12-12T00:31:59.907Z,91.40
2018-12-12T00:34:28.464Z,91.50
2018-12-12T00:36:57.044Z,91.50
2018-12-12T00:39:25.599Z,91.50
2018-12-12T00:41:54.193Z,91.50
2018-12-12T00:44:22.791Z,91.50
2018-12-12T00:46:51.619Z,91.50
2018-12-12T00:49:20.181Z,91.50
2018-12-12T00:51:48.895Z,91.50
2018-12-12T00:54:17.459Z,91.50
2018-12-12T00:56:46.039Z,91.60
2018-12-12T00:59:14.759Z,91.60
2018-12-12T01:01:43.359Z,91.60
2018-12-12T01:04:11.919Z,91.80
2018-12-12T01:06:40.504Z,91.70
2018-12-12T01:09:09.089Z,91.70
2018-12-12T01:11:43.212Z,91.60
2018-12-12T01:14:11.775Z,91.70
2018-12-12T01:16:40.383Z,91.70
2018-12-12T01:19:08.940Z,91.70
2018-12-12T01:21:37.551Z,91.70
2018-12-12T01:24:06.124Z,91.70
2018-12-12T01:26:34.698Z,91.60
2018-12-12T01:29:03.404Z,91.70
2018-12-12T01:31:31.982Z,91.60
2018-12-12T01:34:00.535Z,91.70
2018-12-12T01:36:29.120Z,91.80
2018-12-12T01:38:57.669Z,91.80
2018-12-12T01:41:26.274Z,91.90
2018-12-12T01:43:54.836Z,92.00
2018-12-12T01:46:23.423Z,91.80
2018-12-12T01:48:51.991Z,92.00
2018-12-12T01:51:20.587Z,92.10
2018-12-12T01:53:49.132Z,92.10
2018-12-12T01:56:17.727Z,92.10
2018-12-12T01:58:46.288Z,92.00
2018-12-12T02:01:14.875Z,92.00
2018-12-12T02:03:43.438Z,92.00
2018-12-12T02:06:12.015Z,92.00
2018-12-12T02:08:40.608Z,92.00
2018-12-12T02:11:09.348Z,92.00
2018-12-12T02:13:38.046Z,92.00
2018-12-12T02:16:08.521Z,92.20
2018-12-12T02:18:39.522Z,92.10
2018-12-12T02:21:08.139Z,92.20
2018-12-12T02:23:36.696Z,92.20
2018-12-12T02:26:05.335Z,92.10
2018-12-12T02:28:33.883Z,92.20
2018-12-12T02:31:02.509Z,92.20
2018-12-12T02:33:31.165Z,92.30
2018-12-12T02:35:59.795Z,92.40
2018-12-12T02:38:28.345Z,92.30
2018-12-12T02:40:57.187Z,92.40
2018-12-12T02:43:25.748Z,92.40
2018-12-12T02:45:54.329Z,92.30
2018-12-12T02:48:22.888Z,92.40
2018-12-12T02:50:51.464Z,92.50
2018-12-12T02:53:20.022Z,92.50
2018-12-12T02:55:48.606Z,92.40
2018-12-12T02:58:17.168Z,92.30
2018-12-12T03:00:45.753Z,92.40
2018-12-12T03:03:14.323Z,92.50
2018-12-12T03:05:42.895Z,92.30
2018-12-12T03:08:11.440Z,92.30
2018-12-12T03:10:40.014Z,92.40
2018-12-12T03:13:08.601Z,92.50
2018-12-12T03:15:37.203Z,92.40
2018-12-12T03:18:05.776Z,92.50
2018-12-12T03:20:34.392Z,92.50
2018-12-12T03:23:02.973Z,92.50
2018-12-12T03:25:31.580Z,92.60
2018-12-12T03:28:00.156Z,92.50
2018-12-12T03:30:28.789Z,92.40
2018-12-12T03:32:57.362Z,92.40
2018-12-12T03:35:25.955Z,92.40
2018-12-12T03:37:54.587Z,92.50
2018-12-12T03:40:23.628Z,92.50
2018-12-12T03:42:52.528Z,92.40
2018-12-12T03:45:21.101Z,92.20
2018-12-12T03:47:49.650Z,92.40
2018-12-12T03:50:18.250Z,92.50
2018-12-12T03:52:46.805Z,92.50
2018-12-12T03:55:15.417Z,92.30
2018-12-12T03:57:43.988Z,92.30
2018-12-12T04:00:12.612Z,92.40
2018-12-12T04:02:41.158Z,92.30
2018-12-12T04:05:09.750Z,92.30
2018-12-12T04:07:38.326Z,92.20
2018-12-12T04:10:07.378Z,92.40
2018-12-12T04:12:35.946Z,92.30
2018-12-12T04:15:04.808Z,92.50
2018-12-12T04:17:33.391Z,92.50
2018-12-12T04:20:02.028Z,92.60
2018-12-12T04:22:30.757Z,92.80
2018-12-12T04:24:59.672Z,93.10
2018-12-12T04:27:28.254Z,93.10
2018-12-12T04:29:56.809Z,93.30
2018-12-12T04:32:25.616Z,93.30
2018-12-12T04:34:54.198Z,93.20
2018-12-12T04:37:22.815Z,93.40
2018-12-12T04:39:51.368Z,93.50
2018-12-12T04:42:19.943Z,93.50
2018-12-12T04:44:48.541Z,93.20
2018-12-12T04:47:17.100Z,93.20
2018-12-12T04:49:45.678Z,93.40
2018-12-12T04:52:14.268Z,93.20
2018-12-12T04:54:42.867Z,93.40
2018-12-12T04:57:11.439Z,93.30
2018-12-12T04:59:40.031Z,93.20
2018-12-12T05:02:08.832Z,93.30
2018-12-12T05:04:38.157Z,93.20
2018-12-12T05:07:06.727Z,93.10
2018-12-12T05:09:35.313Z,93.10
2018-12-12T05:12:03.954Z,92.70
2018-12-12T05:14:32.598Z,93.00
2018-12-12T05:17:01.191Z,92.70
2018-12-12T05:19:29.905Z,92.70
2018-12-12T05:21:58.496Z,92.90
2018-12-12T05:24:27.107Z,92.60
2018-12-12T05:26:55.667Z,92.60
2018-12-12T05:29:24.275Z,92.70
2018-12-12T05:31:52.868Z,92.60
2018-12-12T05:34:21.431Z,92.50
2018-12-12T05:36:54.221Z,92.40
2018-12-12T05:39:22.820Z,92.40
2018-12-12T05:41:51.435Z,92.60
2018-12-12T05:44:20.040Z,92.50
2018-12-12T05:46:48.628Z,92.30
2018-12-12T05:49:17.315Z,92.20
2018-12-12T05:51:45.911Z,92.40
2018-12-12T05:54:14.492Z,92.40
2018-12-12T05:56:43.131Z,92.40
2018-12-12T05:59:11.720Z,92.50
2018-12-12T06:01:40.328Z,92.60
2018-12-12T06:04:08.955Z,92.20
2018-12-12T06:06:43.998Z,92.00
2018-12-12T06:09:12.560Z,92.00
2018-12-12T06:11:41.191Z,92.10
2018-12-12T06:14:09.730Z,91.90
2018-12-12T06:16:38.337Z,92.10
2018-12-12T06:19:06.913Z,92.20
2018-12-12T06:21:35.590Z,92.00
2018-12-12T06:24:04.203Z,92.00
2018-12-12T06:26:37.282Z,92.00
2018-12-12T06:29:03.382Z,92.10
2018-12-12T06:31:32.209Z,91.70
2018-12-12T06:34:00.788Z,91.70
2018-12-12T06:36:29.389Z,91.70
2018-12-12T06:38:57.951Z,91.60
2018-12-12T06:41:26.674Z,91.70
2018-12-12T06:43:55.236Z,91.70
2018-12-12T06:46:23.819Z,91.70
2018-12-12T06:48:52.403Z,91.70
2018-12-12T06:51:21.016Z,91.70
2018-12-12T06:53:49.574Z,91.80
2018-12-12T06:56:18.163Z,91.60
2018-12-12T06:58:46.711Z,91.50
2018-12-12T07:01:15.311Z,91.20
2018-12-12T07:03:43.863Z,91.20
2018-12-12T07:06:12.437Z,90.80
2018-12-12T07:08:41.024Z,90.90
2018-12-12T07:11:09.614Z,90.90
2018-12-12T07:13:38.171Z,90.80
2018-12-12T07:16:06.766Z,91.00
2018-12-12T07:18:35.325Z,91.30
2018-12-12T07:21:03.963Z,91.70
2018-12-12T07:23:32.519Z,92.00
2018-12-12T07:26:01.218Z,92.40
2018-12-12T07:28:29.772Z,92.40
2018-12-12T07:30:58.350Z,92.70
2018-12-12T07:33:26.915Z,93.40
2018-12-12T07:35:59.478Z,94.00
2018-12-12T07:38:26.111Z,94.50
2018-12-12T07:40:54.688Z,95.20
2018-12-12T07:43:23.268Z,95.30
2018-12-12T07:45:51.879Z,95.80
2018-12-12T07:48:20.423Z,96.00
2018-12-12T07:50:49.023Z,96.20
2018-12-12T07:53:17.607Z,96.30
2018-12-12T07:55:47.186Z,96.10
2018-12-12T07:58:15.928Z,95.90
2018-12-12T08:00:44.515Z,95.90
2018-12-12T08:03:13.064Z,96.00
2018-12-12T08:05:41.662Z,95.30
2018-12-12T08:08:10.227Z,95.50
2018-12-12T08:10:38.865Z,95.70
2018-12-12T08:13:07.423Z,95.20
2018-12-12T08:15:36.033Z,94.80
2018-12-12T08:18:04.635Z,95.00
2018-12-12T08:20:33.465Z,94.90
2018-12-12T08:23:02.311Z,95.10
2018-12-12T08:25:31.196Z,95.20
2018-12-12T08:27:59.786Z,95.20
2018-12-12T08:30:28.426Z,95.20
2018-12-12T08:32:56.975Z,95.40
2018-12-12T08:35:25.576Z,95.20
2018-12-12T08:37:54.121Z,95.70
2018-12-12T08:40:23.134Z,95.70
2018-12-12T08:42:51.680Z,95.70
2018-12-12T08:45:20.263Z,95.30
2018-12-12T08:47:48.843Z,95.50
2018-12-12T08:50:17.438Z,95.00
2018-12-12T08:52:46.021Z,95.20
2018-12-12T08:55:17.637Z,95.20
2018-12-12T08:57:45.211Z,95.20
2018-12-12T09:00:14.584Z,95.10
2018-12-12T09:02:43.135Z,95.20
2018-12-12T09:05:11.744Z,95.00
2018-12-12T09:07:40.313Z,95.20
2018-12-12T09:10:08.944Z,95.20
2018-12-12T09:12:37.500Z,95.40
2018-12-12T09:15:06.475Z,95.00
2018-12-12T09:17:35.039Z,95.30
2018-12-12T09:20:03.915Z,95.40
2018-12-12T09:22:32.450Z,95.20
2018-12-12T09:25:01.074Z,94.50
2018-12-12T09:27:29.628Z,94.40
2018-12-12T09:29:58.199Z,94.40
2018-12-12T09:32:26.736Z,94.50
2018-12-12T09:34:55.307Z,94.70
2018-12-12T09:37:23.854Z,94.70
2018-12-12T09:39:52.443Z,94.70
2018-12-12T09:42:20.984Z,94.60
2018-12-12T09:44:49.543Z,94.30
2018-12-12T09:47:18.124Z,94.50
2018-12-12T09:49:46.697Z,94.00
2018-12-12T09:52:15.243Z,94.00
2018-12-12T09:54:43.826Z,94.50
2018-12-12T09:57:12.376Z,94.10
2018-12-12T09:59:40.968Z,94.20
2018-12-12T10:02:09.544Z,94.10
2018-12-12T10:04:44.684Z,93.80
2018-12-12T10:07:13.222Z,93.70
2018-12-12T10:09:41.826Z,93.70
2018-12-12T10:12:10.373Z,93.70
2018-12-12T10:14:38.952Z,93.50
2018-12-12T10:17:07.520Z,93.40
2018-12-12T10:19:36.094Z,93.20
2018-12-12T10:22:05.040Z,93.10
2018-12-12T10:24:33.868Z,93.10
2018-12-12T10:27:02.455Z,93.00
2018-12-12T10:29:30.983Z,93.10
2018-12-12T10:31:59.581Z,93.00
2018-12-12T10:34:28.153Z,92.80
2018-12-12T10:36:56.702Z,92.60
2018-12-12T10:39:25.272Z,92.90
2018-12-12T10:41:53.823Z,92.40
2018-12-12T10:44:22.408Z,92.40
2018-12-12T10:46:50.952Z,92.40
2018-12-12T10:49:19.519Z,92.20
2018-12-12T10:51:54.681Z,92.00
2018-12-12T10:54:23.275Z,92.20
2018-12-12T10:56:51.828Z,92.20
2018-12-12T10:59:20.399Z,92.00
2018-12-12T11:01:50.989Z,91.90
2018-12-12T11:04:19.924Z,91.90
2018-12-12T11:06:54.796Z,91.20
2018-12-12T11:09:23.366Z,91.20
2018-12-12T11:11:51.931Z,91.30
2018-12-12T11:14:20.520Z,91.30
2018-12-12T11:16:49.051Z,91.60
2018-12-12T11:19:20.496Z,91.10
2018-12-12T11:21:49.036Z,91.30
2018-12-12T11:24:17.601Z,91.20
2018-12-12T11:26:46.148Z,91.30
2018-12-12T11:29:14.719Z,90.80
2018-12-12T11:31:43.263Z,90.90
2018-12-12T11:34:11.846Z,90.80
2018-12-12T11:36:40.389Z,90.20
2018-12-12T11:39:09.285Z,90.30
2018-12-12T11:41:37.859Z,90.10
2018-12-12T11:44:06.555Z,90.30
2018-12-12T11:46:35.110Z,90.00
2018-12-12T11:49:03.680Z,89.70
2018-12-12T11:51:38.860Z,90.00
2018-12-12T11:54:07.468Z,88.70
2018-12-12T11:56:36.014Z,89.00
2018-12-12T11:59:04.721Z,88.60
2018-12-12T12:01:33.448Z,88.90
2018-12-12T12:04:02.323Z,88.30
2018-12-12T12:06:30.868Z,87.80
2018-12-12T12:08:59.430Z,87.00
2018-12-12T12:11:28.000Z,86.80
2018-12-12T12:13:56.576Z,87.30
2018-12-12T12:16:25.121Z,87.60
2018-12-12T12:18:53.691Z,86.70
2018-12-12T12:21:22.255Z,86.60
2018-12-12T12:23:50.831Z,85.60
2018-12-12T12:26:19.624Z,85.70
2018-12-12T12:28:48.203Z,85.60
2018-12-12T12:31:18.087Z,85.60
2018-12-12T12:33:46.919Z,85.70
2018-12-12T12:36:15.588Z,84.70
2018-12-12T12:38:44.164Z,84.50
2018-12-12T12:41:12.723Z,84.80
2018-12-12T12:43:41.293Z,83.90
2018-12-12T12:46:09.875Z,82.20
2018-12-12T12:48:38.438Z,80.90
2018-12-12T12:51:06.990Z,80.50
2018-12-12T12:53:35.571Z,80.70
2018-12-12T12:56:04.155Z,79.70
2018-12-12T12:58:32.757Z,78.00
2018-12-12T13:01:01.861Z,77.10
2018-12-12T13:03:30.432Z,75.60
2018-12-12T13:05:58.966Z,75.30
2018-12-12T13:08:27.543Z,76.60
2018-12-12T13:10:59.080Z,77.40
2018-12-12T13:13:27.918Z,77.90
2018-12-12T13:15:57.032Z,79.20
2018-12-12T13:18:25.751Z,79.70
2018-12-12T13:20:54.283Z,79.20
2018-12-12T13:23:22.852Z,79.40
2018-12-12T13:25:51.391Z,79.80
2018-12-12T13:28:19.963Z,80.60
2018-12-12T13:30:48.491Z,80.00
2018-12-12T13:33:17.067Z,79.70
2018-12-12T13:35:45.627Z,78.00
2018-12-12T13:38:14.207Z,78.30
2018-12-12T13:40:42.748Z,78.80
2018-12-12T13:43:11.320Z,76.80
2018-12-12T13:45:39.865Z,76.80
2018-12-12T13:48:08.457Z,76.80
2018-12-12T13:50:37.004Z,77.90
2018-12-12T13:53:05.724Z,78.50
2018-12-12T13:55:34.283Z,78.00
2018-12-12T13:58:02.846Z,78.30
2018-12-12T14:00:31.377Z,78.30
2018-12-12T14:02:59.931Z,78.60
2018-12-12T14:05:28.474Z,78.90
2018-12-12T14:07:57.035Z,78.00
2018-12-12T14:10:25.632Z,78.50
2018-12-12T14:12:54.197Z,78.90
2018-12-12T14:15:22.744Z,79.40
2018-12-12T14:17:51.310Z,80.10
2018-12-12T14:20:19.862Z,79.90
2018-12-12T14:22:48.439Z,80.20
2018-12-12T14:25:17.134Z,79.80
2018-12-12T14:27:45.721Z,80.20
2018-12-12T14:30:14.262Z,81.10
2018-12-12T14:32:42.831Z,80.70
2018-12-12T14:35:11.371Z,81.00
2018-12-12T14:37:39.959Z,81.40
2018-12-12T14:40:08.991Z,82.00
2018-12-12T14:42:37.572Z,81.80
2018-12-12T14:45:06.394Z,81.60
2018-12-12T14:47:34.962Z,82.00
2018-12-12T14:50:03.675Z,80.50
2018-12-12T14:52:32.235Z,80.10
2018-12-12T14:55:00.788Z,80.50
2018-12-12T14:57:29.397Z,80.20
2018-12-12T14:59:57.944Z,79.40
2018-12-12T15:02:26.554Z,80.00
2018-12-12T15:04:55.147Z,80.70
2018-12-12T15:07:23.712Z,80.80
2018-12-12T15:09:52.330Z,80.30
2018-12-12T15:12:20.908Z,80.20
2018-12-12T15:14:49.573Z,80.20
2018-12-12T15:17:18.188Z,80.70
2018-12-12T15:19:46.747Z,80.80
2018-12-12T15:22:15.351Z,81.60
2018-12-12T15:24:43.901Z,80.70
2018-12-12T15:27:12.496Z,81.10
2018-12-12T15:29:41.086Z,83.90
2018-12-12T15:32:09.698Z,81.60
2018-12-12T15:34:42.358Z,81.70
2018-12-12T15:37:08.863Z,82.20
2018-12-12T15:39:37.436Z,82.70
2018-12-12T15:42:06.062Z,83.20
2018-12-12T15:44:34.648Z,83.90
2018-12-12T15:47:03.792Z,84.30
2018-12-12T15:49:32.339Z,84.30
2018-12-12T15:52:01.042Z,84.80
2018-12-12T15:54:29.582Z,84.20
2018-12-12T15:56:58.176Z,84.30
2018-12-12T15:59:26.728Z,85.00
2018-12-12T16:01:55.308Z,85.40
2018-12-12T16:04:23.928Z,86.50
2018-12-12T16:06:52.524Z,87.70
2018-12-12T16:09:21.134Z,88.80
2018-12-12T16:11:50.237Z,90.20
2018-12-12T16:14:18.770Z,90.30
2018-12-12T16:16:47.389Z,90.50
2018-12-12T16:19:15.958Z,90.20
2018-12-12T16:21:44.537Z,89.60
2018-12-12T16:24:13.139Z,89.30
2018-12-12T16:26:41.723Z,88.90
2018-12-12T16:29:10.308Z,90.00
2018-12-12T16:31:38.875Z,90.00
2018-12-12T16:34:07.472Z,90.10
2018-12-12T16:36:36.071Z,90.00
2018-12-12T16:42:21.203Z,89.40
2018-12-12T16:44:49.772Z,89.40
2018-12-12T16:47:18.363Z,89.60
2018-12-12T16:49:46.943Z,89.60
2018-12-12T16:52:15.515Z,89.30
2018-12-12T16:54:44.059Z,89.70
2018-12-12T16:57:12.627Z,89.00
2018-12-12T16:59:41.182Z,88.70
2018-12-12T17:02:09.744Z,88.50
2018-12-12T17:04:38.289Z,88.90
2018-12-12T17:07:06.866Z,89.70
2018-12-12T17:09:35.450Z,89.80
2018-12-12T17:12:04.095Z,88.50
2018-12-12T17:14:33.366Z,88.60
2018-12-12T17:17:02.059Z,88.40
2018-12-12T17:19:30.626Z,88.40
2018-12-12T17:21:59.186Z,88.90
2018-12-12T17:24:27.728Z,89.20
2018-12-12T17:26:56.304Z,89.30
2018-12-12T17:29:24.856Z,89.10
2018-12-12T17:31:53.428Z,90.00
2018-12-12T17:34:21.975Z,90.00
2018-12-12T17:36:50.551Z,90.00
2018-12-12T17:39:19.124Z,89.50
2018-12-12T17:41:47.690Z,89.70
2018-12-12T17:44:16.253Z,90.20
2018-12-12T17:46:44.841Z,90.70
2018-12-12T17:49:13.398Z,90.80
2018-12-12T17:51:41.973Z,90.60
2018-12-12T17:54:10.523Z,90.70
2018-12-12T17:56:39.128Z,91.10
2018-12-12T17:59:07.699Z,91.30
2018-12-12T18:01:36.442Z,91.30
2018-12-12T18:04:05.009Z,91.60
2018-12-12T18:06:33.612Z,91.90
2018-12-12T18:09:02.308Z,92.20
2018-12-12T18:11:30.904Z,92.50
2018-12-12T18:13:59.456Z,92.70
2018-12-12T18:16:28.057Z,92.70
2018-12-12T18:18:56.644Z,92.90
2018-12-12T18:21:25.222Z,92.70
2018-12-12T18:23:53.778Z,92.60
2018-12-12T18:26:22.352Z,92.60
2018-12-12T18:28:50.916Z,92.60
2018-12-12T18:31:19.495Z,92.60
2018-12-12T18:33:48.087Z,92.40
2018-12-12T18:36:16.679Z,92.60
2018-12-12T18:38:45.300Z,92.30
2018-12-12T18:41:13.890Z,92.00
2018-12-12T18:43:42.432Z,92.00
2018-12-12T18:46:11.011Z,91.90
2018-12-12T18:48:39.576Z,91.40
2018-12-12T18:51:08.156Z,91.00
2018-12-12T18:53:36.696Z,91.10
2018-12-12T18:56:05.303Z,91.20
2018-12-12T18:58:33.852Z,91.20
2018-12-12T19:01:02.428Z,90.80
2018-12-12T19:03:30.999Z,90.70
2018-12-12T19:05:59.583Z,90.70
2018-12-12T19:08:28.235Z,90.50
2018-12-12T19:10:56.851Z,90.50
2018-12-12T19:13:25.414Z,90.30
2018-12-12T19:15:54.015Z,90.30
2018-12-12T19:18:22.566Z,90.20
2018-12-12T19:20:51.144Z,90.10
2018-12-12T19:23:19.929Z,90.10
2018-12-12T19:25:48.513Z,90.40
2018-12-12T19:28:17.068Z,89.80
2018-12-12T19:30:45.630Z,90.00
2018-12-12T19:33:14.192Z,89.50
2018-12-12T19:35:42.773Z,89.90
2018-12-12T19:38:11.329Z,90.20
2018-12-12T19:40:39.911Z,89.20
2018-12-12T19:43:08.497Z,92.80
2018-12-12T19:45:37.093Z,90.80
2018-12-12T19:48:05.679Z,89.70
2018-12-12T19:50:34.242Z,90.30
2018-12-12T19:53:03.160Z,87.90
2018-12-12T19:55:31.751Z,89.00
2018-12-12T19:58:00.313Z,88.10
2018-12-12T20:00:28.915Z,88.40
2018-12-12T20:02:57.476Z,88.50
2018-12-12T20:05:26.058Z,87.60
2018-12-12T20:07:54.631Z,87.30
2018-12-12T20:10:23.370Z,87.90
2018-12-12T20:12:52.083Z,87.30
2018-12-12T20:15:25.904Z,88.10
2018-12-12T20:17:54.456Z,88.70
2018-12-12T20:20:23.119Z,88.30
2018-12-12T20:22:51.663Z,88.40
2018-12-12T20:25:20.230Z,88.10
2018-12-12T20:27:48.784Z,88.30
2018-12-12T20:30:17.358Z,88.10
2018-12-12T20:32:45.911Z,88.70
2018-12-12T20:35:14.825Z,88.50
2018-12-12T20:37:43.403Z,89.00
2018-12-12T20:40:12.143Z,88.80
2018-12-12T20:42:40.714Z,89.60
2018-12-12T20:45:09.353Z,89.40
2018-12-12T20:47:37.960Z,88.90
2018-12-12T20:50:07.517Z,89.60
2018-12-12T20:52:42.575Z,89.60
2018-12-12T20:55:11.361Z,90.00
2018-12-12T20:57:39.959Z,89.80
2018-12-12T21:00:09.310Z,89.30
2018-12-12T21:02:37.919Z,89.60
2018-12-12T21:05:06.658Z,89.70
2018-12-12T21:07:42.478Z,89.90
2018-12-12T21:10:11.184Z,89.90
2018-12-12T21:12:39.846Z,90.00
2018-12-12T21:15:08.748Z,90.00
2018-12-12T21:17:37.359Z,90.30
2018-12-12T21:20:07.942Z,90.00
2018-12-12T21:22:36.475Z,90.10
2018-12-12T21:25:05.775Z,90.30
2018-12-12T21:27:34.315Z,90.00
2018-12-12T21:30:03.321Z,89.90
2018-12-12T21:32:32.464Z,89.70
2018-12-12T21:35:01.267Z,89.90
2018-12-12T21:37:29.825Z,90.10
2018-12-12T21:39:58.414Z,90.10
2018-12-12T21:42:26.979Z,90.30
2018-12-12T21:44:55.543Z,90.40
2018-12-12T21:47:24.088Z,90.40
2018-12-12T21:49:52.702Z,90.40
2018-12-12T21:52:21.277Z,90.60
2018-12-12T21:54:49.842Z,90.80
2018-12-12T21:57:18.409Z,90.90
2018-12-12T21:59:47.000Z,91.10
2018-12-12T22:02:15.613Z,91.10
2018-12-12T22:04:44.186Z,91.10
2018-12-12T22:07:12.747Z,91.00
2018-12-12T22:09:41.321Z,91.10
2018-12-12T22:12:09.920Z,91.10
2018-12-12T22:14:38.499Z,90.80
2018-12-12T22:17:07.052Z,90.90
2018-12-12T22:19:35.615Z,90.80
2018-12-12T22:22:04.191Z,91.00
2018-12-12T22:24:32.780Z,91.00
2018-12-12T22:27:01.363Z,91.10
2018-12-12T22:29:30.421Z,91.00
2018-12-12T22:31:59.072Z,91.00
2018-12-12T22:34:27.635Z,91.10
2018-12-12T22:36:56.187Z,91.10
2018-12-12T22:39:24.755Z,91.20
2018-12-12T22:41:53.319Z,91.40
2018-12-12T22:44:21.911Z,91.40
2018-12-12T22:46:50.472Z,91.40
2018-12-12T22:49:19.073Z,91.30
2018-12-12T22:51:47.625Z,91.50
2018-12-12T22:54:16.220Z,91.50
2018-12-12T22:56:44.837Z,91.50
2018-12-12T22:59:13.428Z,91.50
2018-12-12T23:01:42.100Z,91.50
2018-12-12T23:04:10.685Z,91.60
2018-12-12T23:06:39.236Z,91.70
2018-12-12T23:09:08.867Z,91.70
2018-12-12T23:11:37.520Z,91.70
2018-12-12T23:14:06.127Z,91.60
2018-12-12T23:16:34.679Z,91.80
2018-12-12T23:19:03.281Z,91.80
2018-12-12T23:21:31.879Z,91.70
2018-12-12T23:24:00.467Z,91.60
2018-12-12T23:26:29.043Z,91.70
2018-12-12T23:28:57.644Z,91.60
2018-12-12T23:31:26.190Z,91.40
2018-12-12T23:33:54.778Z,91.40
2018-12-12T23:36:26.957Z,91.40
2018-12-12T23:38:53.983Z,91.20
2018-12-12T23:41:22.537Z,91.20
2018-12-12T23:43:51.106Z,91.10
2018-12-12T23:46:19.663Z,91.10
2018-12-12T23:48:48.239Z,91.00
2018-12-12T23:51:16.804Z,91.20
2018-12-12T23:53:45.387Z,91.00
2018-12-12T23:56:13.942Z,91.20
2018-12-12T23:58:42.508Z,91.20
